sensor_id;sensor_type;location;lat;lon;timestamp;P1;durP1;ratioP1;P2;durP2;ratioP2
50393;SDS011;36308;46.312;25.288;2024-01-30T00:02:09;59.67;;;23.40;;
50393;SDS011;36308;46.312;25.288;2024-01-30T00:04:34;52.05;;;23.00;;
50393;SDS011;36308;46.312;25.288;2024-01-30T00:07:00;61.05;;;25.42;;
50393;SDS011;36308;46.312;25.288;2024-01-30T00:09:25;73.47;;;31.00;;
50393;SDS011;36308;46.312;25.288;2024-01-30T00:11:51;70.70;;;29.70;;
50393;SDS011;36308;46.312;25.288;2024-01-30T00:14:17;62.80;;;27.35;;
50393;SDS011;36308;46.312;25.288;2024-01-30T00:16:42;63.05;;;25.83;;
50393;SDS011;36308;46.312;25.288;2024-01-30T00:19:08;65.43;;;27.35;;
50393;SDS011;36308;46.312;25.288;2024-01-30T00:21:33;69.10;;;28.55;;
50393;SDS011;36308;46.312;25.288;2024-01-30T00:23:59;66.25;;;29.02;;
50393;SDS011;36308;46.312;25.288;2024-01-30T00:26:24;75.18;;;29.60;;
50393;SDS011;36308;46.312;25.288;2024-01-30T00:28:50;67.53;;;26.65;;
50393;SDS011;36308;46.312;25.288;2024-01-30T00:31:15;56.25;;;24.42;;
50393;SDS011;36308;46.312;25.288;2024-01-30T00:33:41;42.50;;;19.55;;
50393;SDS011;36308;46.312;25.288;2024-01-30T00:36:07;42.83;;;18.60;;
50393;SDS011;36308;46.312;25.288;2024-01-30T00:38:34;42.60;;;19.65;;
50393;SDS011;36308;46.312;25.288;2024-01-30T00:41:00;43.83;;;18.75;;
50393;SDS011;36308;46.312;25.288;2024-01-30T00:43:27;44.05;;;18.27;;
50393;SDS011;36308;46.312;25.288;2024-01-30T00:45:53;44.10;;;18.42;;
50393;SDS011;36308;46.312;25.288;2024-01-30T00:48:19;43.55;;;18.10;;
50393;SDS011;36308;46.312;25.288;2024-01-30T00:50:44;43.17;;;18.33;;
50393;SDS011;36308;46.312;25.288;2024-01-30T00:53:10;38.05;;;16.23;;
50393;SDS011;36308;46.312;25.288;2024-01-30T00:55:36;43.35;;;17.52;;
50393;SDS011;36308;46.312;25.288;2024-01-30T00:58:02;51.53;;;23.65;;
50393;SDS011;36308;46.312;25.288;2024-01-30T01:00:28;48.92;;;21.75;;
50393;SDS011;36308;46.312;25.288;2024-01-30T01:02:57;38.92;;;16.23;;
50393;SDS011;36308;46.312;25.288;2024-01-30T01:05:22;35.53;;;15.00;;
50393;SDS011;36308;46.312;25.288;2024-01-30T01:07:48;37.50;;;15.13;;
50393;SDS011;36308;46.312;25.288;2024-01-30T01:10:14;30.83;;;14.10;;
50393;SDS011;36308;46.312;25.288;2024-01-30T01:12:41;28.95;;;12.65;;
50393;SDS011;36308;46.312;25.288;2024-01-30T01:15:07;27.48;;;12.98;;
50393;SDS011;36308;46.312;25.288;2024-01-30T01:17:36;26.85;;;12.30;;
50393;SDS011;36308;46.312;25.288;2024-01-30T01:20:02;30.58;;;13.32;;
50393;SDS011;36308;46.312;25.288;2024-01-30T01:22:30;29.58;;;13.02;;
50393;SDS011;36308;46.312;25.288;2024-01-30T01:24:56;24.55;;;11.90;;
50393;SDS011;36308;46.312;25.288;2024-01-30T01:27:21;24.95;;;11.30;;
50393;SDS011;36308;46.312;25.288;2024-01-30T01:29:47;25.27;;;12.05;;
50393;SDS011;36308;46.312;25.288;2024-01-30T01:32:12;26.65;;;11.73;;
50393;SDS011;36308;46.312;25.288;2024-01-30T01:34:38;25.25;;;12.05;;
50393;SDS011;36308;46.312;25.288;2024-01-30T01:37:03;30.73;;;14.13;;
50393;SDS011;36308;46.312;25.288;2024-01-30T01:39:29;29.80;;;14.07;;
50393;SDS011;36308;46.312;25.288;2024-01-30T01:41:54;35.35;;;14.70;;
50393;SDS011;36308;46.312;25.288;2024-01-30T01:44:38;27.48;;;12.93;;
50393;SDS011;36308;46.312;25.288;2024-01-30T01:47:04;25.58;;;11.88;;
50393;SDS011;36308;46.312;25.288;2024-01-30T01:49:29;28.98;;;11.63;;
50393;SDS011;36308;46.312;25.288;2024-01-30T01:51:55;25.00;;;10.98;;
50393;SDS011;36308;46.312;25.288;2024-01-30T01:54:22;25.42;;;10.68;;
50393;SDS011;36308;46.312;25.288;2024-01-30T01:56:49;23.27;;;10.00;;
50393;SDS011;36308;46.312;25.288;2024-01-30T01:59:15;26.20;;;11.98;;
50393;SDS011;36308;46.312;25.288;2024-01-30T02:01:40;33.13;;;15.93;;
50393;SDS011;36308;46.312;25.288;2024-01-30T02:04:07;31.48;;;15.40;;
50393;SDS011;36308;46.312;25.288;2024-01-30T02:06:33;40.38;;;18.98;;
50393;SDS011;36308;46.312;25.288;2024-01-30T02:08:59;37.38;;;18.85;;
50393;SDS011;36308;46.312;25.288;2024-01-30T02:11:25;35.38;;;15.85;;
50393;SDS011;36308;46.312;25.288;2024-01-30T02:13:52;32.10;;;15.02;;
50393;SDS011;36308;46.312;25.288;2024-01-30T02:16:17;46.30;;;18.38;;
50393;SDS011;36308;46.312;25.288;2024-01-30T02:18:43;35.58;;;16.63;;
50393;SDS011;36308;46.312;25.288;2024-01-30T02:21:12;30.05;;;13.70;;
50393;SDS011;36308;46.312;25.288;2024-01-30T02:23:38;26.05;;;11.73;;
50393;SDS011;36308;46.312;25.288;2024-01-30T02:26:06;23.73;;;11.02;;
50393;SDS011;36308;46.312;25.288;2024-01-30T02:28:31;20.55;;;10.07;;
50393;SDS011;36308;46.312;25.288;2024-01-30T02:30:57;23.20;;;10.85;;
50393;SDS011;36308;46.312;25.288;2024-01-30T02:33:22;30.33;;;12.85;;
50393;SDS011;36308;46.312;25.288;2024-01-30T02:35:48;31.42;;;11.55;;
50393;SDS011;36308;46.312;25.288;2024-01-30T02:38:15;26.17;;;11.80;;
50393;SDS011;36308;46.312;25.288;2024-01-30T02:40:41;28.40;;;12.40;;
50393;SDS011;36308;46.312;25.288;2024-01-30T02:43:06;23.15;;;11.60;;
50393;SDS011;36308;46.312;25.288;2024-01-30T02:45:32;32.97;;;13.90;;
50393;SDS011;36308;46.312;25.288;2024-01-30T02:47:57;36.42;;;14.80;;
50393;SDS011;36308;46.312;25.288;2024-01-30T02:50:23;32.60;;;12.95;;
50393;SDS011;36308;46.312;25.288;2024-01-30T02:52:48;35.10;;;15.43;;
50393;SDS011;36308;46.312;25.288;2024-01-30T02:55:14;42.28;;;17.67;;
50393;SDS011;36308;46.312;25.288;2024-01-30T02:57:42;34.58;;;14.68;;
50393;SDS011;36308;46.312;25.288;2024-01-30T03:00:08;33.35;;;14.23;;
50393;SDS011;36308;46.312;25.288;2024-01-30T03:02:35;33.22;;;13.05;;
50393;SDS011;36308;46.312;25.288;2024-01-30T03:05:01;27.95;;;12.77;;
50393;SDS011;36308;46.312;25.288;2024-01-30T03:07:26;33.80;;;14.48;;
50393;SDS011;36308;46.312;25.288;2024-01-30T03:09:52;24.58;;;12.55;;
50393;SDS011;36308;46.312;25.288;2024-01-30T03:12:17;24.40;;;11.40;;
50393;SDS011;36308;46.312;25.288;2024-01-30T03:14:43;25.45;;;12.13;;
50393;SDS011;36308;46.312;25.288;2024-01-30T03:17:08;27.65;;;12.27;;
50393;SDS011;36308;46.312;25.288;2024-01-30T03:19:34;28.20;;;12.48;;
50393;SDS011;36308;46.312;25.288;2024-01-30T03:22:00;28.73;;;13.52;;
50393;SDS011;36308;46.312;25.288;2024-01-30T03:24:25;30.63;;;13.10;;
50393;SDS011;36308;46.312;25.288;2024-01-30T03:26:51;32.78;;;12.52;;
50393;SDS011;36308;46.312;25.288;2024-01-30T03:29:16;25.17;;;12.32;;
50393;SDS011;36308;46.312;25.288;2024-01-30T03:31:42;26.88;;;10.90;;
50393;SDS011;36308;46.312;25.288;2024-01-30T03:34:07;22.70;;;10.82;;
50393;SDS011;36308;46.312;25.288;2024-01-30T03:36:33;23.77;;;10.13;;
50393;SDS011;36308;46.312;25.288;2024-01-30T03:38:59;27.42;;;11.27;;
50393;SDS011;36308;46.312;25.288;2024-01-30T03:41:25;48.00;;;20.52;;
50393;SDS011;36308;46.312;25.288;2024-01-30T03:43:51;36.25;;;16.65;;
50393;SDS011;36308;46.312;25.288;2024-01-30T03:46:16;29.63;;;12.50;;
50393;SDS011;36308;46.312;25.288;2024-01-30T03:48:42;29.88;;;11.38;;
50393;SDS011;36308;46.312;25.288;2024-01-30T03:51:08;28.55;;;11.68;;
50393;SDS011;36308;46.312;25.288;2024-01-30T03:53:34;46.15;;;18.15;;
50393;SDS011;36308;46.312;25.288;2024-01-30T03:56:00;57.88;;;24.35;;
50393;SDS011;36308;46.312;25.288;2024-01-30T03:58:26;46.95;;;20.35;;
50393;SDS011;36308;46.312;25.288;2024-01-30T04:00:51;45.10;;;18.38;;
50393;SDS011;36308;46.312;25.288;2024-01-30T04:03:17;29.38;;;13.80;;
50393;SDS011;36308;46.312;25.288;2024-01-30T04:05:42;37.83;;;14.18;;
50393;SDS011;36308;46.312;25.288;2024-01-30T04:08:08;48.25;;;17.63;;
50393;SDS011;36308;46.312;25.288;2024-01-30T04:10:34;48.72;;;19.00;;
50393;SDS011;36308;46.312;25.288;2024-01-30T04:13:00;49.80;;;20.48;;
50393;SDS011;36308;46.312;25.288;2024-01-30T04:15:25;48.10;;;23.05;;
50393;SDS011;36308;46.312;25.288;2024-01-30T04:17:52;54.63;;;26.73;;
50393;SDS011;36308;46.312;25.288;2024-01-30T04:20:17;100.68;;;45.50;;
50393;SDS011;36308;46.312;25.288;2024-01-30T04:22:43;89.38;;;39.20;;
50393;SDS011;36308;46.312;25.288;2024-01-30T04:25:09;91.30;;;38.55;;
50393;SDS011;36308;46.312;25.288;2024-01-30T04:27:35;75.32;;;32.00;;
50393;SDS011;36308;46.312;25.288;2024-01-30T04:30:01;58.35;;;28.15;;
50393;SDS011;36308;46.312;25.288;2024-01-30T04:32:26;52.55;;;24.35;;
50393;SDS011;36308;46.312;25.288;2024-01-30T04:34:52;40.92;;;20.38;;
50393;SDS011;36308;46.312;25.288;2024-01-30T04:37:17;58.80;;;25.55;;
50393;SDS011;36308;46.312;25.288;2024-01-30T04:39:43;42.05;;;18.10;;
50393;SDS011;36308;46.312;25.288;2024-01-30T04:42:08;36.40;;;15.10;;
50393;SDS011;36308;46.312;25.288;2024-01-30T04:44:34;96.88;;;32.47;;
50393;SDS011;36308;46.312;25.288;2024-01-30T04:47:00;89.38;;;34.45;;
50393;SDS011;36308;46.312;25.288;2024-01-30T04:49:26;56.22;;;24.02;;
50393;SDS011;36308;46.312;25.288;2024-01-30T04:51:52;45.05;;;20.65;;
50393;SDS011;36308;46.312;25.288;2024-01-30T04:54:19;38.40;;;18.30;;
50393;SDS011;36308;46.312;25.288;2024-01-30T04:56:44;28.33;;;14.30;;
50393;SDS011;36308;46.312;25.288;2024-01-30T04:59:10;25.70;;;11.73;;
50393;SDS011;36308;46.312;25.288;2024-01-30T05:01:35;18.67;;;8.77;;
50393;SDS011;36308;46.312;25.288;2024-01-30T05:04:00;23.13;;;11.07;;
50393;SDS011;36308;46.312;25.288;2024-01-30T05:06:27;18.67;;;9.52;;
50393;SDS011;36308;46.312;25.288;2024-01-30T05:08:53;19.48;;;8.90;;
50393;SDS011;36308;46.312;25.288;2024-01-30T05:11:18;20.58;;;9.48;;
50393;SDS011;36308;46.312;25.288;2024-01-30T05:13:47;21.67;;;10.25;;
50393;SDS011;36308;46.312;25.288;2024-01-30T05:16:12;41.53;;;18.02;;
50393;SDS011;36308;46.312;25.288;2024-01-30T05:18:38;46.55;;;20.15;;
50393;SDS011;36308;46.312;25.288;2024-01-30T05:21:03;46.67;;;20.42;;
50393;SDS011;36308;46.312;25.288;2024-01-30T05:23:30;44.88;;;21.17;;
50393;SDS011;36308;46.312;25.288;2024-01-30T05:25:56;42.67;;;20.98;;
50393;SDS011;36308;46.312;25.288;2024-01-30T05:28:21;43.83;;;20.65;;
50393;SDS011;36308;46.312;25.288;2024-01-30T05:30:47;40.47;;;19.42;;
50393;SDS011;36308;46.312;25.288;2024-01-30T05:33:12;50.35;;;23.67;;
50393;SDS011;36308;46.312;25.288;2024-01-30T05:35:38;47.47;;;22.83;;
50393;SDS011;36308;46.312;25.288;2024-01-30T05:38:04;42.25;;;20.05;;
50393;SDS011;36308;46.312;25.288;2024-01-30T05:40:29;35.55;;;17.20;;
50393;SDS011;36308;46.312;25.288;2024-01-30T05:42:56;33.17;;;16.33;;
50393;SDS011;36308;46.312;25.288;2024-01-30T05:45:24;37.30;;;16.65;;
50393;SDS011;36308;46.312;25.288;2024-01-30T05:47:49;38.83;;;16.52;;
50393;SDS011;36308;46.312;25.288;2024-01-30T05:50:15;40.70;;;18.70;;
50393;SDS011;36308;46.312;25.288;2024-01-30T05:52:40;45.22;;;20.88;;
50393;SDS011;36308;46.312;25.288;2024-01-30T05:55:06;57.38;;;24.38;;
50393;SDS011;36308;46.312;25.288;2024-01-30T05:57:32;174.05;;;60.95;;
50393;SDS011;36308;46.312;25.288;2024-01-30T05:59:57;112.97;;;42.35;;
50393;SDS011;36308;46.312;25.288;2024-01-30T06:02:23;62.88;;;28.35;;
50393;SDS011;36308;46.312;25.288;2024-01-30T06:04:49;57.45;;;22.70;;
50393;SDS011;36308;46.312;25.288;2024-01-30T06:07:14;41.92;;;18.58;;
50393;SDS011;36308;46.312;25.288;2024-01-30T06:09:40;40.78;;;20.10;;
50393;SDS011;36308;46.312;25.288;2024-01-30T06:12:06;42.90;;;19.05;;
50393;SDS011;36308;46.312;25.288;2024-01-30T06:14:31;50.15;;;23.00;;
50393;SDS011;36308;46.312;25.288;2024-01-30T06:16:58;59.60;;;28.00;;
50393;SDS011;36308;46.312;25.288;2024-01-30T06:19:24;79.05;;;35.45;;
50393;SDS011;36308;46.312;25.288;2024-01-30T06:21:51;104.47;;;48.97;;
50393;SDS011;36308;46.312;25.288;2024-01-30T06:24:16;116.20;;;50.33;;
50393;SDS011;36308;46.312;25.288;2024-01-30T06:26:42;257.30;;;104.43;;
50393;SDS011;36308;46.312;25.288;2024-01-30T06:29:08;222.63;;;79.55;;
50393;SDS011;36308;46.312;25.288;2024-01-30T06:31:34;162.38;;;58.97;;
50393;SDS011;36308;46.312;25.288;2024-01-30T06:34:05;158.63;;;54.00;;
50393;SDS011;36308;46.312;25.288;2024-01-30T06:36:30;135.60;;;53.20;;
50393;SDS011;36308;46.312;25.288;2024-01-30T06:38:56;126.45;;;51.30;;
50393;SDS011;36308;46.312;25.288;2024-01-30T06:41:21;134.15;;;57.13;;
50393;SDS011;36308;46.312;25.288;2024-01-30T06:43:48;153.02;;;62.53;;
50393;SDS011;36308;46.312;25.288;2024-01-30T06:46:13;125.57;;;50.72;;
50393;SDS011;36308;46.312;25.288;2024-01-30T06:48:39;107.90;;;47.08;;
50393;SDS011;36308;46.312;25.288;2024-01-30T06:51:05;106.32;;;44.83;;
50393;SDS011;36308;46.312;25.288;2024-01-30T06:53:31;96.57;;;43.20;;
50393;SDS011;36308;46.312;25.288;2024-01-30T06:55:57;100.07;;;43.72;;
50393;SDS011;36308;46.312;25.288;2024-01-30T06:58:22;92.55;;;40.90;;
50393;SDS011;36308;46.312;25.288;2024-01-30T07:00:48;90.15;;;40.60;;
50393;SDS011;36308;46.312;25.288;2024-01-30T07:03:13;121.88;;;55.95;;
50393;SDS011;36308;46.312;25.288;2024-01-30T07:05:39;101.10;;;44.97;;
50393;SDS011;36308;46.312;25.288;2024-01-30T07:08:04;95.75;;;43.65;;
50393;SDS011;36308;46.312;25.288;2024-01-30T07:10:30;103.93;;;45.22;;
50393;SDS011;36308;46.312;25.288;2024-01-30T07:12:56;96.85;;;45.50;;
50393;SDS011;36308;46.312;25.288;2024-01-30T07:15:22;108.07;;;45.80;;
50393;SDS011;36308;46.312;25.288;2024-01-30T07:17:47;86.25;;;38.78;;
50393;SDS011;36308;46.312;25.288;2024-01-30T07:20:13;64.15;;;27.02;;
50393;SDS011;36308;46.312;25.288;2024-01-30T07:22:39;78.65;;;33.92;;
50393;SDS011;36308;46.312;25.288;2024-01-30T07:25:05;81.60;;;37.13;;
50393;SDS011;36308;46.312;25.288;2024-01-30T07:27:32;109.15;;;47.60;;
50393;SDS011;36308;46.312;25.288;2024-01-30T07:29:57;86.60;;;43.15;;
50393;SDS011;36308;46.312;25.288;2024-01-30T07:32:23;86.68;;;40.53;;
50393;SDS011;36308;46.312;25.288;2024-01-30T07:34:48;61.05;;;29.00;;
50393;SDS011;36308;46.312;25.288;2024-01-30T07:37:14;63.47;;;29.05;;
50393;SDS011;36308;46.312;25.288;2024-01-30T07:39:41;57.00;;;27.27;;
50393;SDS011;36308;46.312;25.288;2024-01-30T07:42:07;56.60;;;28.50;;
50393;SDS011;36308;46.312;25.288;2024-01-30T07:44:33;61.28;;;27.90;;
50393;SDS011;36308;46.312;25.288;2024-01-30T07:46:59;67.60;;;32.25;;
50393;SDS011;36308;46.312;25.288;2024-01-30T07:49:24;65.80;;;30.75;;
50393;SDS011;36308;46.312;25.288;2024-01-30T07:51:50;57.25;;;28.05;;
50393;SDS011;36308;46.312;25.288;2024-01-30T07:54:16;65.72;;;30.67;;
50393;SDS011;36308;46.312;25.288;2024-01-30T07:56:42;64.75;;;30.35;;
50393;SDS011;36308;46.312;25.288;2024-01-30T07:59:11;68.40;;;32.88;;
50393;SDS011;36308;46.312;25.288;2024-01-30T08:01:37;79.18;;;35.13;;
50393;SDS011;36308;46.312;25.288;2024-01-30T08:04:03;75.50;;;33.78;;
50393;SDS011;36308;46.312;25.288;2024-01-30T08:06:29;71.25;;;34.53;;
50393;SDS011;36308;46.312;25.288;2024-01-30T08:08:54;73.50;;;32.72;;
50393;SDS011;36308;46.312;25.288;2024-01-30T08:11:20;78.30;;;37.22;;
50393;SDS011;36308;46.312;25.288;2024-01-30T08:13:54;76.38;;;37.50;;
50393;SDS011;36308;46.312;25.288;2024-01-30T08:16:20;73.05;;;36.75;;
50393;SDS011;36308;46.312;25.288;2024-01-30T08:18:46;77.40;;;36.58;;
50393;SDS011;36308;46.312;25.288;2024-01-30T08:21:11;81.65;;;42.08;;
50393;SDS011;36308;46.312;25.288;2024-01-30T08:23:39;82.00;;;40.30;;
50393;SDS011;36308;46.312;25.288;2024-01-30T08:26:05;71.10;;;35.70;;
50393;SDS011;36308;46.312;25.288;2024-01-30T08:28:31;68.32;;;33.78;;
50393;SDS011;36308;46.312;25.288;2024-01-30T08:30:56;68.57;;;34.40;;
50393;SDS011;36308;46.312;25.288;2024-01-30T08:33:22;63.05;;;32.25;;
50393;SDS011;36308;46.312;25.288;2024-01-30T08:35:47;61.22;;;34.67;;
50393;SDS011;36308;46.312;25.288;2024-01-30T08:38:13;59.78;;;29.98;;
50393;SDS011;36308;46.312;25.288;2024-01-30T08:40:39;48.40;;;25.42;;
50393;SDS011;36308;46.312;25.288;2024-01-30T08:43:04;66.93;;;32.65;;
50393;SDS011;36308;46.312;25.288;2024-01-30T08:45:30;57.53;;;29.70;;
50393;SDS011;36308;46.312;25.288;2024-01-30T08:47:56;52.25;;;25.20;;
50393;SDS011;36308;46.312;25.288;2024-01-30T08:50:21;55.45;;;28.63;;
50393;SDS011;36308;46.312;25.288;2024-01-30T08:52:47;66.68;;;31.58;;
50393;SDS011;36308;46.312;25.288;2024-01-30T08:55:12;47.78;;;26.60;;
50393;SDS011;36308;46.312;25.288;2024-01-30T08:57:38;57.60;;;31.23;;
50393;SDS011;36308;46.312;25.288;2024-01-30T09:00:04;63.65;;;33.35;;
50393;SDS011;36308;46.312;25.288;2024-01-30T09:02:32;66.38;;;33.47;;
50393;SDS011;36308;46.312;25.288;2024-01-30T09:04:57;57.13;;;30.73;;
50393;SDS011;36308;46.312;25.288;2024-01-30T09:07:23;59.15;;;30.13;;
50393;SDS011;36308;46.312;25.288;2024-01-30T09:09:49;58.30;;;28.42;;
50393;SDS011;36308;46.312;25.288;2024-01-30T09:12:14;62.97;;;32.47;;
50393;SDS011;36308;46.312;25.288;2024-01-30T09:14:40;61.58;;;32.03;;
50393;SDS011;36308;46.312;25.288;2024-01-30T09:17:06;47.20;;;24.88;;
50393;SDS011;36308;46.312;25.288;2024-01-30T09:19:32;50.10;;;25.33;;
50393;SDS011;36308;46.312;25.288;2024-01-30T09:21:57;43.42;;;22.55;;
50393;SDS011;36308;46.312;25.288;2024-01-30T09:24:23;47.17;;;23.10;;
50393;SDS011;36308;46.312;25.288;2024-01-30T09:26:48;35.63;;;18.70;;
50393;SDS011;36308;46.312;25.288;2024-01-30T09:29:14;32.38;;;17.50;;
50393;SDS011;36308;46.312;25.288;2024-01-30T09:31:42;37.28;;;19.58;;
50393;SDS011;36308;46.312;25.288;2024-01-30T09:34:08;36.05;;;19.55;;
50393;SDS011;36308;46.312;25.288;2024-01-30T09:36:34;22.67;;;12.82;;
50393;SDS011;36308;46.312;25.288;2024-01-30T09:38:59;41.40;;;20.95;;
50393;SDS011;36308;46.312;25.288;2024-01-30T09:41:25;40.30;;;21.83;;
50393;SDS011;36308;46.312;25.288;2024-01-30T09:43:52;51.45;;;27.13;;
50393;SDS011;36308;46.312;25.288;2024-01-30T09:46:21;83.28;;;45.90;;
50393;SDS011;36308;46.312;25.288;2024-01-30T09:48:52;31.80;;;17.85;;
50393;SDS011;36308;46.312;25.288;2024-01-30T09:51:20;61.42;;;36.33;;
50393;SDS011;36308;46.312;25.288;2024-01-30T09:53:47;44.67;;;28.45;;
50393;SDS011;36308;46.312;25.288;2024-01-30T09:56:13;60.80;;;38.97;;
50393;SDS011;36308;46.312;25.288;2024-01-30T09:58:39;61.08;;;39.00;;
50393;SDS011;36308;46.312;25.288;2024-01-30T10:01:05;251.45;;;186.32;;
50393;SDS011;36308;46.312;25.288;2024-01-30T10:03:31;57.40;;;33.88;;
50393;SDS011;36308;46.312;25.288;2024-01-30T10:05:56;40.63;;;24.45;;
50393;SDS011;36308;46.312;25.288;2024-01-30T10:08:22;42.90;;;27.10;;
50393;SDS011;36308;46.312;25.288;2024-01-30T10:10:49;115.18;;;86.03;;
50393;SDS011;36308;46.312;25.288;2024-01-30T10:13:15;26.27;;;15.88;;
50393;SDS011;36308;46.312;25.288;2024-01-30T10:15:41;24.15;;;13.82;;
50393;SDS011;36308;46.312;25.288;2024-01-30T10:18:07;42.35;;;27.52;;
50393;SDS011;36308;46.312;25.288;2024-01-30T10:20:35;32.05;;;17.70;;
50393;SDS011;36308;46.312;25.288;2024-01-30T10:23:00;27.40;;;15.68;;
50393;SDS011;36308;46.312;25.288;2024-01-30T10:25:26;28.40;;;16.85;;
50393;SDS011;36308;46.312;25.288;2024-01-30T10:27:55;16.80;;;9.35;;
50393;SDS011;36308;46.312;25.288;2024-01-30T10:30:21;29.98;;;19.38;;
50393;SDS011;36308;46.312;25.288;2024-01-30T10:32:47;23.08;;;13.52;;
50393;SDS011;36308;46.312;25.288;2024-01-30T10:35:13;26.88;;;17.73;;
50393;SDS011;36308;46.312;25.288;2024-01-30T10:37:38;33.85;;;25.73;;
50393;SDS011;36308;46.312;25.288;2024-01-30T10:40:04;26.83;;;17.73;;
50393;SDS011;36308;46.312;25.288;2024-01-30T10:42:33;43.03;;;28.60;;
50393;SDS011;36308;46.312;25.288;2024-01-30T10:45:08;19.27;;;12.40;;
50393;SDS011;36308;46.312;25.288;2024-01-30T10:47:37;19.30;;;9.50;;
50393;SDS011;36308;46.312;25.288;2024-01-30T10:50:05;23.67;;;16.15;;
50393;SDS011;36308;46.312;25.288;2024-01-30T10:52:33;32.17;;;26.13;;
50393;SDS011;36308;46.312;25.288;2024-01-30T10:54:59;19.75;;;10.23;;
50393;SDS011;36308;46.312;25.288;2024-01-30T10:57:25;17.23;;;8.98;;
50393;SDS011;36308;46.312;25.288;2024-01-30T10:59:58;15.35;;;8.00;;
50393;SDS011;36308;46.312;25.288;2024-01-30T11:02:25;16.15;;;8.82;;
50393;SDS011;36308;46.312;25.288;2024-01-30T11:04:56;13.52;;;7.50;;
50393;SDS011;36308;46.312;25.288;2024-01-30T11:07:29;16.92;;;11.27;;
50393;SDS011;36308;46.312;25.288;2024-01-30T11:12:23;14.93;;;8.98;;
50393;SDS011;36308;46.312;25.288;2024-01-30T11:15:08;16.35;;;8.68;;
50393;SDS011;36308;46.312;25.288;2024-01-30T11:17:50;19.87;;;11.63;;
50393;SDS011;36308;46.312;25.288;2024-01-30T11:22:58;16.20;;;9.30;;
50393;SDS011;36308;46.312;25.288;2024-01-30T11:25:25;29.30;;;21.52;;
50393;SDS011;36308;46.312;25.288;2024-01-30T11:27:54;16.80;;;12.40;;
50393;SDS011;36308;46.312;25.288;2024-01-30T11:35:32;14.30;;;8.55;;
50393;SDS011;36308;46.312;25.288;2024-01-30T11:37:58;12.23;;;6.95;;
50393;SDS011;36308;46.312;25.288;2024-01-30T11:40:26;15.73;;;8.45;;
50393;SDS011;36308;46.312;25.288;2024-01-30T11:42:53;15.13;;;10.30;;
50393;SDS011;36308;46.312;25.288;2024-01-30T11:45:19;22.00;;;12.38;;
50393;SDS011;36308;46.312;25.288;2024-01-30T11:50:30;18.95;;;10.55;;
50393;SDS011;36308;46.312;25.288;2024-01-30T11:52:56;21.02;;;12.48;;
50393;SDS011;36308;46.312;25.288;2024-01-30T11:55:22;19.55;;;11.93;;
50393;SDS011;36308;46.312;25.288;2024-01-30T11:57:48;18.58;;;10.57;;
50393;SDS011;36308;46.312;25.288;2024-01-30T12:00:14;13.05;;;8.63;;
50393;SDS011;36308;46.312;25.288;2024-01-30T12:02:41;16.20;;;9.25;;
50393;SDS011;36308;46.312;25.288;2024-01-30T12:05:07;26.13;;;15.73;;
50393;SDS011;36308;46.312;25.288;2024-01-30T12:07:33;15.65;;;8.43;;
50393;SDS011;36308;46.312;25.288;2024-01-30T12:09:59;16.55;;;10.48;;
50393;SDS011;36308;46.312;25.288;2024-01-30T12:12:25;20.38;;;12.18;;
50393;SDS011;36308;46.312;25.288;2024-01-30T12:14:51;22.67;;;15.02;;
50393;SDS011;36308;46.312;25.288;2024-01-30T12:17:32;15.07;;;9.30;;
50393;SDS011;36308;46.312;25.288;2024-01-30T12:22:38;11.82;;;7.60;;
50393;SDS011;36308;46.312;25.288;2024-01-30T12:25:04;13.85;;;8.20;;
50393;SDS011;36308;46.312;25.288;2024-01-30T12:27:33;16.65;;;9.60;;
50393;SDS011;36308;46.312;25.288;2024-01-30T12:29:58;18.30;;;10.80;;
50393;SDS011;36308;46.312;25.288;2024-01-30T12:32:24;13.32;;;7.00;;
50393;SDS011;36308;46.312;25.288;2024-01-30T12:34:50;11.35;;;7.07;;
50393;SDS011;36308;46.312;25.288;2024-01-30T12:37:15;14.93;;;9.05;;
50393;SDS011;36308;46.312;25.288;2024-01-30T12:39:47;15.68;;;9.63;;
50393;SDS011;36308;46.312;25.288;2024-01-30T12:42:13;14.98;;;9.05;;
50393;SDS011;36308;46.312;25.288;2024-01-30T12:44:39;12.70;;;8.05;;
50393;SDS011;36308;46.312;25.288;2024-01-30T12:47:05;19.27;;;11.90;;
50393;SDS011;36308;46.312;25.288;2024-01-30T12:49:31;14.85;;;9.40;;
50393;SDS011;36308;46.312;25.288;2024-01-30T12:51:58;14.23;;;8.73;;
50393;SDS011;36308;46.312;25.288;2024-01-30T12:54:23;26.55;;;15.68;;
50393;SDS011;36308;46.312;25.288;2024-01-30T12:56:49;16.58;;;10.45;;
50393;SDS011;36308;46.312;25.288;2024-01-30T12:59:14;19.92;;;13.00;;
50393;SDS011;36308;46.312;25.288;2024-01-30T13:01:41;16.23;;;10.93;;
50393;SDS011;36308;46.312;25.288;2024-01-30T13:04:06;14.73;;;9.27;;
50393;SDS011;36308;46.312;25.288;2024-01-30T13:06:32;17.02;;;9.90;;
50393;SDS011;36308;46.312;25.288;2024-01-30T13:08:57;18.48;;;10.15;;
50393;SDS011;36308;46.312;25.288;2024-01-30T13:11:23;19.85;;;10.75;;
50393;SDS011;36308;46.312;25.288;2024-01-30T13:13:50;18.02;;;10.82;;
50393;SDS011;36308;46.312;25.288;2024-01-30T13:16:16;16.65;;;9.38;;
50393;SDS011;36308;46.312;25.288;2024-01-30T13:18:41;14.80;;;9.30;;
50393;SDS011;36308;46.312;25.288;2024-01-30T13:21:08;13.02;;;8.48;;
50393;SDS011;36308;46.312;25.288;2024-01-30T13:23:34;13.32;;;8.48;;
50393;SDS011;36308;46.312;25.288;2024-01-30T13:25:59;13.98;;;8.27;;
50393;SDS011;36308;46.312;25.288;2024-01-30T13:28:25;14.23;;;8.68;;
50393;SDS011;36308;46.312;25.288;2024-01-30T13:30:50;15.63;;;8.85;;
50393;SDS011;36308;46.312;25.288;2024-01-30T13:33:16;16.70;;;9.02;;
50393;SDS011;36308;46.312;25.288;2024-01-30T13:35:44;17.65;;;9.27;;
50393;SDS011;36308;46.312;25.288;2024-01-30T13:38:10;17.15;;;11.02;;
50393;SDS011;36308;46.312;25.288;2024-01-30T13:40:36;18.33;;;12.05;;
50393;SDS011;36308;46.312;25.288;2024-01-30T13:43:01;20.73;;;12.73;;
50393;SDS011;36308;46.312;25.288;2024-01-30T13:45:27;18.02;;;11.55;;
50393;SDS011;36308;46.312;25.288;2024-01-30T13:47:52;16.40;;;9.27;;
50393;SDS011;36308;46.312;25.288;2024-01-30T13:50:18;62.40;;;50.70;;
50393;SDS011;36308;46.312;25.288;2024-01-30T13:52:43;19.70;;;11.48;;
50393;SDS011;36308;46.312;25.288;2024-01-30T13:55:09;16.83;;;10.23;;
50393;SDS011;36308;46.312;25.288;2024-01-30T13:57:35;26.70;;;16.55;;
50393;SDS011;36308;46.312;25.288;2024-01-30T14:00:05;36.45;;;20.15;;
50393;SDS011;36308;46.312;25.288;2024-01-30T14:02:31;39.92;;;22.23;;
50393;SDS011;36308;46.312;25.288;2024-01-30T14:04:57;19.05;;;10.80;;
50393;SDS011;36308;46.312;25.288;2024-01-30T14:07:23;33.17;;;21.77;;
50393;SDS011;36308;46.312;25.288;2024-01-30T14:09:50;33.25;;;20.60;;
50393;SDS011;36308;46.312;25.288;2024-01-30T14:12:15;30.42;;;17.98;;
50393;SDS011;36308;46.312;25.288;2024-01-30T14:14:41;24.52;;;15.95;;
50393;SDS011;36308;46.312;25.288;2024-01-30T14:17:07;30.13;;;20.63;;
50393;SDS011;36308;46.312;25.288;2024-01-30T14:19:33;27.50;;;15.77;;